Ever Ulysses — 9V7962 — position and weather

sailwx.info

Track history (hours):
 
Tides and Currents Weather Stations Pressure Air Temp Water Temp Dewpoint Dewpoint Depression Visibility Wind Speed Wind Dir Waves Ship Positions

Ever Ulysses

Last reported at 2016-Jun-20 02:27 UTC. Time now 2016-Jun-24 22:22 UTC.
Position N 25°06' E 119°50'.

Length 285 m; draft 11 m.

Type: Ship (hazmat cat D). MMSI: 564442000.

Date/timePositionNaut miles runAvg speedWind from/ knotsBaromVisibWave heightAir tempDewpointWater temp
2016-Jun-20 02:27N 25°06' E 119°50'3920.0
2016-Jun-20 00:30N 24°38' E 119°20'2220.3
2016-Jun-19 23:24N 24°22' E 119°02'1920.5
2016-Jun-19 22:28N 24°09' E 118°46'1820.0
2016-Jun-19 21:33N 23°57' E 118°32'2019.4
2016-Jun-19 20:33N 23°44' E 118°15'2119.0
2016-Jun-19 19:26N 23°31' E 117°58'7418.8
2016-Jun-19 15:31N 22°52' E 116°50'135 3.4
2016-Jun-17 23:19N 22°24' E 114°27'1013.8
2016-Jun-17 22:34N 22°14' E 114°22'1110.6
2016-Jun-17 21:33N 22°10' E 114°12'1211.6
2016-Jun-17 20:33N 22°19' E 114°05'1111.1
2016-Jun-17 19:33N 22°23' E 113°54'4 4.0
2016-Jun-17 18:33N 22°27' E 113°53'0 0.0
2016-Jun-17 17:05N 22°27' E 113°53'0 0.0
2016-Jun-17 16:29N 22°27' E 113°53'0 0.0
2016-Jun-17 15:29N 22°27' E 113°53'0 0.0
2016-Jun-17 14:23N 22°27' E 113°53'0 0.0
2016-Jun-17 13:11N 22°27' E 113°53'0 0.0
2016-Jun-17 12:11N 22°27' E 113°53'0 0.0
2016-Jun-17 11:29N 22°27' E 113°53'0 0.0
2016-Jun-17 10:29N 22°27' E 113°53'0 0.0
2016-Jun-17 09:23N 22°27' E 113°53'2 2.6
2016-Jun-17 08:33N 22°25' E 113°53'9 8.1
2016-Jun-17 07:25N 22°21' E 114°02'1110.9
2016-Jun-17 06:24N 22°13' E 114°10'910.4
2016-Jun-17 05:33N 22°08' E 114°18'213 8.4
2016-Jun-16 04:19N 23°35' E 117°49'1113.4
2016-Jun-16 03:31N 23°44' E 117°55'1313.4
2016-Jun-16 02:30N 23°56' E 118°03'1313.3
2016-Jun-16 01:32N 24°07' E 118°10'1212.5
2016-Jun-16 00:34N 24°19' E 118°11'1211.6
2016-Jun-15 23:33N 24°26' E 118°01'1 0.7
2016-Jun-15 22:31N 24°27' E 118°00'0 0.0
2016-Jun-15 21:31N 24°27' E 118°00'0 0.0
2016-Jun-15 20:31N 24°27' E 118°00'0 0.0
2016-Jun-15 19:31N 24°27' E 118°00'0 0.0
2016-Jun-15 18:31N 24°27' E 118°00'0 0.0
2016-Jun-15 17:31N 24°27' E 118°00'0 0.0
2016-Jun-15 16:31N 24°27' E 118°00'0 0.0
2016-Jun-15 15:31N 24°27' E 118°00'0 0.0
2016-Jun-15 14:31N 24°27' E 118°00'0 0.0
2016-Jun-15 13:28N 24°27' E 118°00'0 0.0
2016-Jun-15 12:28N 24°27' E 118°00'0 0.0
2016-Jun-15 11:31N 24°27' E 118°00'0 0.0
2016-Jun-15 10:31N 24°27' E 118°00'0 0.2
2016-Jun-15 09:33N 24°27' E 118°00'9 9.4
2016-Jun-15 08:34N 24°22' E 118°09'1312.7
2016-Jun-15 07:32N 24°21' E 118°23'3 2.4
2016-Jun-15 06:10N 24°22' E 118°27'0 0.1
2016-Jun-15 05:28N 24°22' E 118°27'0 0.0
2016-Jun-15 03:28N 24°22' E 118°27'0 0.0
2016-Jun-14 21:10N 24°22' E 118°27'0 0.0
2016-Jun-14 20:16N 24°22' E 118°27'0 0.0
2016-Jun-14 19:10N 24°22' E 118°27'0 0.0
2016-Jun-14 18:16N 24°22' E 118°27'0 0.0
2016-Jun-14 17:10N 24°22' E 118°27'0 0.0
2016-Jun-14 16:28N 24°22' E 118°27'0 0.1
2016-Jun-14 15:28N 24°22' E 118°27'0 0.0
2016-Jun-14 11:33N 24°22' E 118°27'10 9.8
2016-Jun-14 10:33N 24°22' E 118°37'1212.2
2016-Jun-14 09:33N 24°25' E 118°50'1512.0
2016-Jun-14 08:19N 24°30' E 119°06'911.9
2016-Jun-14 07:33N 24°33' E 119°15'  
Track history (hours):
 
Tides and Currents Weather Stations Pressure Air Temp Water Temp Dewpoint Dewpoint Depression Visibility Wind Speed Wind Dir Waves Ship Positions

Ever Ulysses

Last reported at 2016-Jun-20 02:27 UTC. Time now 2016-Jun-24 22:22 UTC.
Position N 25°06' E 119°50'.

Length 285 m; draft 11 m.

Type: Ship (hazmat cat D). MMSI: 564442000.

Date/timePositionNaut miles runAvg speedWind from/ knotsBaromVisibWave heightAir tempDewpointWater temp
2016-Jun-20 02:27N 25°06' E 119°50'3920.0
2016-Jun-20 00:30N 24°38' E 119°20'2220.3
2016-Jun-19 23:24N 24°22' E 119°02'1920.5
2016-Jun-19 22:28N 24°09' E 118°46'1820.0
2016-Jun-19 21:33N 23°57' E 118°32'2019.4
2016-Jun-19 20:33N 23°44' E 118°15'2119.0
2016-Jun-19 19:26N 23°31' E 117°58'7418.8
2016-Jun-19 15:31N 22°52' E 116°50'135 3.4
2016-Jun-17 23:19N 22°24' E 114°27'1013.8
2016-Jun-17 22:34N 22°14' E 114°22'1110.6
2016-Jun-17 21:33N 22°10' E 114°12'1211.6
2016-Jun-17 20:33N 22°19' E 114°05'1111.1
2016-Jun-17 19:33N 22°23' E 113°54'4 4.0
2016-Jun-17 18:33N 22°27' E 113°53'0 0.0
2016-Jun-17 17:05N 22°27' E 113°53'0 0.0
2016-Jun-17 16:29N 22°27' E 113°53'0 0.0
2016-Jun-17 15:29N 22°27' E 113°53'0 0.0
2016-Jun-17 14:23N 22°27' E 113°53'0 0.0
2016-Jun-17 13:11N 22°27' E 113°53'0 0.0
2016-Jun-17 12:11N 22°27' E 113°53'0 0.0
2016-Jun-17 11:29N 22°27' E 113°53'0 0.0
2016-Jun-17 10:29N 22°27' E 113°53'0 0.0
2016-Jun-17 09:23N 22°27' E 113°53'2 2.6
2016-Jun-17 08:33N 22°25' E 113°53'9 8.1
2016-Jun-17 07:25N 22°21' E 114°02'1110.9
2016-Jun-17 06:24N 22°13' E 114°10'910.4
2016-Jun-17 05:33N 22°08' E 114°18'213 8.4
2016-Jun-16 04:19N 23°35' E 117°49'1113.4
2016-Jun-16 03:31N 23°44' E 117°55'1313.4
2016-Jun-16 02:30N 23°56' E 118°03'1313.3
2016-Jun-16 01:32N 24°07' E 118°10'1212.5
2016-Jun-16 00:34N 24°19' E 118°11'1211.6
2016-Jun-15 23:33N 24°26' E 118°01'1 0.7
2016-Jun-15 22:31N 24°27' E 118°00'0 0.0
2016-Jun-15 21:31N 24°27' E 118°00'0 0.0
2016-Jun-15 20:31N 24°27' E 118°00'0 0.0
2016-Jun-15 19:31N 24°27' E 118°00'0 0.0
2016-Jun-15 18:31N 24°27' E 118°00'0 0.0
2016-Jun-15 17:31N 24°27' E 118°00'0 0.0
2016-Jun-15 16:31N 24°27' E 118°00'0 0.0
2016-Jun-15 15:31N 24°27' E 118°00'0 0.0
2016-Jun-15 14:31N 24°27' E 118°00'0 0.0
2016-Jun-15 13:28N 24°27' E 118°00'0 0.0
2016-Jun-15 12:28N 24°27' E 118°00'0 0.0
2016-Jun-15 11:31N 24°27' E 118°00'0 0.0
2016-Jun-15 10:31N 24°27' E 118°00'0 0.2
2016-Jun-15 09:33N 24°27' E 118°00'9 9.4
2016-Jun-15 08:34N 24°22' E 118°09'1312.7
2016-Jun-15 07:32N 24°21' E 118°23'3 2.4
2016-Jun-15 06:10N 24°22' E 118°27'0 0.1
2016-Jun-15 05:28N 24°22' E 118°27'0 0.0
2016-Jun-15 03:28N 24°22' E 118°27'0 0.0
2016-Jun-14 21:10N 24°22' E 118°27'0 0.0
2016-Jun-14 20:16N 24°22' E 118°27'0 0.0
2016-Jun-14 19:10N 24°22' E 118°27'0 0.0
2016-Jun-14 18:16N 24°22' E 118°27'0 0.0
2016-Jun-14 17:10N 24°22' E 118°27'0 0.0
2016-Jun-14 16:28N 24°22' E 118°27'0 0.1
2016-Jun-14 15:28N 24°22' E 118°27'0 0.0
2016-Jun-14 11:33N 24°22' E 118°27'10 9.8
2016-Jun-14 10:33N 24°22' E 118°37'1212.2
2016-Jun-14 09:33N 24°25' E 118°50'1512.0
2016-Jun-14 08:19N 24°30' E 119°06'911.9
2016-Jun-14 07:33N 24°33' E 119°15'  

Dump ship's entire track history